createdAt,value
2023-04-28T00:01:21.533Z,45.50
2023-04-28T00:03:23.244Z,45.60
2023-04-28T00:05:25.294Z,45.60
2023-04-28T00:07:26.984Z,45.50
2023-04-28T00:09:28.534Z,45.50
2023-04-28T00:11:30.106Z,45.50
2023-04-28T00:13:31.899Z,45.50
2023-04-28T00:15:33.481Z,45.50
2023-04-28T00:17:35.298Z,45.50
2023-04-28T00:19:38.597Z,45.50
2023-04-28T00:21:40.355Z,45.50
2023-04-28T00:23:41.974Z,45.40
2023-04-28T00:25:43.541Z,45.50
2023-04-28T00:27:45.104Z,45.50
2023-04-28T00:29:47.174Z,45.50
2023-04-28T00:31:48.787Z,45.50
2023-04-28T00:33:50.653Z,45.50
2023-04-28T00:35:58.956Z,45.50
2023-04-28T00:38:00.524Z,45.50
2023-04-28T00:40:02.356Z,45.50
2023-04-28T00:42:04.759Z,45.50
2023-04-28T00:44:06.560Z,45.50
2023-04-28T00:46:08.180Z,45.50
2023-04-28T00:48:09.719Z,45.50
2023-04-28T00:50:11.534Z,45.40
2023-04-28T00:52:13.124Z,45.40
2023-04-28T00:54:15.184Z,45.50
2023-04-28T00:56:17.284Z,45.50
2023-04-28T00:58:19.234Z,45.50
2023-04-28T01:00:20.940Z,45.50
2023-04-28T01:02:22.915Z,45.40
2023-04-28T01:04:25.307Z,45.50
2023-04-28T01:06:27.116Z,45.50
2023-04-28T01:08:30.336Z,45.50
2023-04-28T01:10:32.446Z,45.40
2023-04-28T01:12:34.017Z,45.50
2023-04-28T01:14:35.698Z,45.40
2023-04-28T01:16:38.393Z,45.50
2023-04-28T01:18:42.982Z,45.50
2023-04-28T01:20:45.183Z,45.50
2023-04-28T01:22:46.835Z,45.40
2023-04-28T01:24:48.434Z,45.40
2023-04-28T01:26:50.009Z,45.50
2023-04-28T01:28:51.604Z,45.50
2023-04-28T01:30:53.203Z,45.50
2023-04-28T01:32:54.809Z,45.40
2023-04-28T01:34:56.423Z,45.40
2023-04-28T01:36:57.947Z,45.40
2023-04-28T01:38:59.773Z,45.40
2023-04-28T01:41:02.487Z,45.40
2023-04-28T01:43:04.029Z,45.40
2023-04-28T01:45:05.979Z,45.30
2023-04-28T01:47:07.615Z,45.30
2023-04-28T01:49:09.249Z,45.40
2023-04-28T01:51:10.869Z,45.50
2023-04-28T01:53:12.425Z,45.50
2023-04-28T01:55:51.720Z,45.40
2023-04-28T01:57:53.287Z,45.40
2023-04-28T01:59:55.259Z,45.50
2023-04-28T02:01:56.900Z,45.40
2023-04-28T02:03:58.784Z,45.40
2023-04-28T02:06:00.789Z,45.40
2023-04-28T02:08:02.313Z,45.40
2023-04-28T02:10:04.146Z,45.50
2023-04-28T02:12:06.044Z,45.40
2023-04-28T02:14:08.073Z,45.40
2023-04-28T02:16:09.687Z,45.40
2023-04-28T02:18:11.343Z,45.40
2023-04-28T02:20:14.466Z,45.40
2023-04-28T02:22:16.131Z,45.40
2023-04-28T02:24:17.896Z,45.40
2023-04-28T02:26:19.904Z,45.40
2023-04-28T02:28:21.475Z,45.40
2023-04-28T02:30:23.043Z,45.40
2023-04-28T02:32:24.648Z,45.50
2023-04-28T02:34:26.347Z,45.40
2023-04-28T02:36:27.905Z,45.40
2023-04-28T02:38:29.618Z,45.40
2023-04-28T02:40:31.211Z,45.40
2023-04-28T02:42:32.824Z,45.40
2023-04-28T02:44:34.375Z,45.40
2023-04-28T02:46:36.000Z,45.40
2023-04-28T02:48:37.685Z,45.40
2023-04-28T02:50:39.376Z,45.40
2023-04-28T02:52:40.972Z,45.40
2023-04-28T02:54:42.745Z,45.40
2023-04-28T02:56:44.439Z,45.40
2023-04-28T02:58:46.276Z,45.40
2023-04-28T03:00:47.970Z,45.40
2023-04-28T03:02:49.718Z,45.40
2023-04-28T03:04:51.472Z,45.40
2023-04-28T03:06:53.115Z,45.40
2023-04-28T03:08:54.649Z,45.40
2023-04-28T03:10:56.490Z,45.40
2023-04-28T03:12:58.105Z,45.40
2023-04-28T03:14:59.630Z,45.40
2023-04-28T03:17:01.402Z,45.40
2023-04-28T03:19:03.478Z,45.40
2023-04-28T03:21:05.060Z,45.40
2023-04-28T03:23:07.458Z,45.40
2023-04-28T03:25:09.169Z,45.40
2023-04-28T03:27:10.720Z,45.40
2023-04-28T03:29:12.568Z,45.20
2023-04-28T03:31:14.149Z,45.30
2023-04-28T03:33:15.733Z,45.40
2023-04-28T03:35:17.293Z,45.30
2023-04-28T03:37:18.904Z,45.40
2023-04-28T03:39:20.490Z,45.20
2023-04-28T03:41:22.042Z,45.30
2023-04-28T03:43:23.600Z,45.20
2023-04-28T03:45:25.172Z,45.20
2023-04-28T03:47:26.905Z,45.20
2023-04-28T03:49:28.480Z,45.20
2023-04-28T03:51:30.208Z,45.20
2023-04-28T03:53:31.761Z,45.20
2023-04-28T03:55:33.319Z,45.20
2023-04-28T03:57:34.912Z,45.20
2023-04-28T03:59:36.686Z,45.10
2023-04-28T04:01:38.259Z,45.00
2023-04-28T04:03:40.061Z,45.10
2023-04-28T04:05:41.882Z,45.00
2023-04-28T04:07:43.632Z,45.00
2023-04-28T04:09:45.165Z,45.00
2023-04-28T04:11:46.917Z,45.20
2023-04-28T04:13:48.666Z,45.00
2023-04-28T04:15:52.492Z,45.00
2023-04-28T04:17:54.293Z,45.00
2023-04-28T04:19:56.169Z,45.00
2023-04-28T04:21:57.743Z,45.00
2023-04-28T04:23:59.353Z,45.00
2023-04-28T04:26:01.026Z,45.60
2023-04-28T04:28:02.735Z,45.00
2023-04-28T04:30:04.714Z,45.00
2023-04-28T04:32:06.553Z,45.00
2023-04-28T04:34:08.068Z,45.00
2023-04-28T04:36:09.572Z,45.00
2023-04-28T04:38:11.213Z,45.00
2023-04-28T04:40:12.895Z,45.00
2023-04-28T04:42:24.926Z,45.00
2023-04-28T04:44:27.505Z,44.90
2023-04-28T04:46:29.188Z,45.00
2023-04-28T04:48:30.839Z,45.00
2023-04-28T04:50:32.457Z,45.00
2023-04-28T04:52:33.968Z,45.00
2023-04-28T04:54:35.668Z,45.00
2023-04-28T04:56:37.385Z,45.00
2023-04-28T04:58:38.911Z,45.00
2023-04-28T05:00:40.714Z,45.00
2023-04-28T05:02:42.457Z,45.00
2023-04-28T05:04:44.301Z,45.00
2023-04-28T05:06:46.124Z,45.10
2023-04-28T05:08:47.728Z,45.20
2023-04-28T05:10:49.501Z,45.40
2023-04-28T05:12:51.312Z,45.20
2023-04-28T05:14:52.898Z,45.20
2023-04-28T05:16:55.067Z,45.30
2023-04-28T05:18:56.796Z,45.30
2023-04-28T05:20:58.364Z,46.00
2023-04-28T05:22:59.944Z,45.30
2023-04-28T05:25:01.483Z,45.40
2023-04-28T05:27:04.260Z,45.40
2023-04-28T05:29:06.197Z,45.50
2023-04-28T05:31:08.074Z,45.40
2023-04-28T05:33:09.665Z,45.40
2023-04-28T05:35:11.484Z,45.40
2023-04-28T05:37:13.061Z,45.40
2023-04-28T05:39:14.706Z,45.40
2023-04-28T05:41:16.348Z,45.50
2023-04-28T05:43:18.140Z,45.50
2023-04-28T05:45:19.717Z,45.60
2023-04-28T05:47:21.366Z,45.70
2023-04-28T05:49:22.944Z,45.70
2023-04-28T05:51:24.590Z,45.90
2023-04-28T05:53:26.812Z,45.90
2023-04-28T05:55:28.700Z,46.00
2023-04-28T05:57:32.059Z,46.10
2023-04-28T05:59:38.473Z,46.20
2023-04-28T06:01:39.984Z,46.40
2023-04-28T06:03:41.900Z,46.50
2023-04-28T06:05:44.080Z,46.50
2023-04-28T06:09:47.390Z,46.80
2023-04-28T06:11:48.930Z,46.70
2023-04-28T06:13:50.874Z,47.00
2023-04-28T06:15:52.489Z,47.20
2023-04-28T06:17:54.211Z,47.50
2023-04-28T06:19:56.941Z,47.50
2023-04-28T06:21:58.538Z,47.30
2023-04-28T06:24:00.828Z,47.10
2023-04-28T06:26:02.484Z,47.40
2023-04-28T06:28:04.125Z,47.20
2023-04-28T06:30:06.447Z,47.20
2023-04-28T06:32:08.094Z,47.10
2023-04-28T06:34:09.703Z,47.00
2023-04-28T06:36:14.149Z,47.00
2023-04-28T06:38:15.809Z,47.10
2023-04-28T06:40:17.538Z,47.20
2023-04-28T06:42:20.325Z,47.10
2023-04-28T06:44:22.066Z,47.00
2023-04-28T06:46:23.859Z,47.00
2023-04-28T06:48:26.175Z,46.80
2023-04-28T06:50:27.789Z,46.70
2023-04-28T06:52:38.491Z,46.60
2023-04-28T06:54:41.033Z,46.40
2023-04-28T06:56:42.574Z,46.40
2023-04-28T06:58:44.131Z,46.30
2023-04-28T07:00:45.729Z,46.30
2023-04-28T07:02:47.501Z,46.30
2023-04-28T07:04:49.349Z,46.30
2023-04-28T07:06:50.910Z,46.20
2023-04-28T07:08:52.519Z,46.20
2023-04-28T07:10:54.425Z,46.20
2023-04-28T07:12:56.036Z,46.20
2023-04-28T07:14:57.601Z,46.10
2023-04-28T07:16:59.214Z,46.00
2023-04-28T07:19:00.837Z,46.10
2023-04-28T07:21:04.821Z,46.00
2023-04-28T07:23:07.094Z,46.00
2023-04-28T07:25:09.331Z,46.10
2023-04-28T07:27:10.998Z,46.00
2023-04-28T07:29:13.831Z,46.00
2023-04-28T07:31:15.408Z,46.10
2023-04-28T07:33:16.982Z,46.70
2023-04-28T07:35:18.553Z,46.00
2023-04-28T07:37:20.097Z,46.00
2023-04-28T07:39:21.677Z,46.00
2023-04-28T07:41:23.876Z,46.00
2023-04-28T07:43:25.461Z,45.90
2023-04-28T07:45:27.225Z,45.90
2023-04-28T07:47:29.237Z,46.00
2023-04-28T07:49:31.351Z,46.00
2023-04-28T07:51:33.027Z,45.90
2023-04-28T07:53:35.130Z,46.00
2023-04-28T07:55:37.276Z,45.90
2023-04-28T07:57:39.133Z,46.00
2023-04-28T07:59:40.699Z,45.90
2023-04-28T08:01:42.957Z,45.90
2023-04-28T08:03:44.804Z,45.90
2023-04-28T08:05:46.543Z,45.80
2023-04-28T08:07:48.232Z,46.00
2023-04-28T08:09:50.731Z,46.20
2023-04-28T08:11:53.765Z,46.30
2023-04-28T08:13:56.748Z,46.20
2023-04-28T08:16:00.312Z,46.00
2023-04-28T08:18:02.184Z,46.00
2023-04-28T08:20:03.940Z,46.10
2023-04-28T08:22:07.249Z,46.10
2023-04-28T08:24:10.704Z,46.10
2023-04-28T08:26:12.275Z,46.10
2023-04-28T08:28:14.209Z,46.10
2023-04-28T08:30:16.192Z,46.00
2023-04-28T08:32:17.853Z,46.00
2023-04-28T08:34:19.626Z,46.00
2023-04-28T08:36:21.404Z,46.00
2023-04-28T08:38:25.046Z,46.00
2023-04-28T08:40:27.025Z,46.10
2023-04-28T08:42:29.261Z,46.10
2023-04-28T08:44:49.305Z,46.10
2023-04-28T08:46:52.655Z,46.10
2023-04-28T08:48:58.043Z,46.10
2023-04-28T08:51:01.707Z,46.10
2023-04-28T08:53:04.262Z,46.00
2023-04-28T08:55:07.032Z,46.00
2023-04-28T08:57:09.570Z,46.10
2023-04-28T08:59:12.425Z,46.20
2023-04-28T09:01:14.056Z,46.10
2023-04-28T09:03:15.696Z,46.10
2023-04-28T09:05:17.603Z,46.10
2023-04-28T09:07:19.290Z,46.20
2023-04-28T09:09:25.305Z,46.20
2023-04-28T09:11:26.985Z,46.40
2023-04-28T09:13:28.629Z,46.40
2023-04-28T09:15:38.019Z,46.40
2023-04-28T09:17:52.402Z,46.60
2023-04-28T09:19:54.096Z,46.50
2023-04-28T09:21:56.996Z,46.60
2023-04-28T09:23:58.644Z,46.60
2023-04-28T09:26:03.563Z,46.70
2023-04-28T09:28:22.071Z,46.70
2023-04-28T09:30:38.853Z,46.70
2023-04-28T09:32:40.636Z,46.70
2023-04-28T09:34:48.144Z,46.70
2023-04-28T09:36:49.706Z,46.80
2023-04-28T09:38:51.303Z,46.70
2023-04-28T09:40:57.691Z,46.80
2023-04-28T09:43:02.393Z,46.70
2023-04-28T09:45:11.857Z,46.70
2023-04-28T09:47:20.968Z,46.80
2023-04-28T09:49:22.510Z,46.80
2023-04-28T09:51:25.384Z,46.80
2023-04-28T09:53:27.547Z,46.80
2023-04-28T09:55:30.517Z,47.30
2023-04-28T09:57:32.836Z,48.50
2023-04-28T09:59:35.142Z,47.30
2023-04-28T10:01:40.651Z,47.10
2023-04-28T10:03:42.859Z,47.00
2023-04-28T10:05:45.306Z,46.90
2023-04-28T10:07:46.923Z,46.90
2023-04-28T10:09:50.570Z,46.90
2023-04-28T10:11:52.900Z,46.90
2023-04-28T10:13:55.052Z,46.80
2023-04-28T10:15:58.514Z,46.90
2023-04-28T10:18:00.586Z,46.90
2023-04-28T10:20:03.248Z,46.80
2023-04-28T10:22:29.124Z,46.90
2023-04-28T10:24:31.235Z,46.90
2023-04-28T10:26:51.328Z,47.00
2023-04-28T10:28:53.131Z,47.00
2023-04-28T10:31:14.486Z,47.00
2023-04-28T10:33:16.087Z,46.90
2023-04-28T10:35:32.984Z,47.00
2023-04-28T10:37:53.113Z,47.00
2023-04-28T10:40:13.595Z,47.00
2023-04-28T10:42:35.860Z,47.10
2023-04-28T10:44:37.458Z,47.10
2023-04-28T10:46:57.686Z,47.10
2023-04-28T10:48:59.454Z,47.10
2023-04-28T10:51:07.550Z,47.10
2023-04-28T10:53:09.257Z,47.10
2023-04-28T10:55:37.364Z,47.10
2023-04-28T10:57:38.917Z,47.10
2023-04-28T10:59:40.434Z,47.20
2023-04-28T11:01:42.454Z,47.20
2023-04-28T11:04:13.267Z,47.20
2023-04-28T11:06:19.376Z,47.20
2023-04-28T11:08:31.576Z,47.20
2023-04-28T11:10:51.660Z,47.30
2023-04-28T11:13:22.364Z,47.30
2023-04-28T11:15:23.909Z,47.30
2023-04-28T11:17:39.617Z,47.30
2023-04-28T11:19:45.322Z,47.40
2023-04-28T11:21:48.224Z,47.50
2023-04-28T11:23:49.938Z,47.50
2023-04-28T11:25:54.778Z,47.50
2023-04-28T11:28:03.072Z,47.50
2023-04-28T11:30:19.747Z,47.50
2023-04-28T11:32:31.415Z,47.50
2023-04-28T11:34:33.287Z,47.50
2023-04-28T11:36:36.091Z,47.50
2023-04-28T11:38:44.244Z,47.50
2023-04-28T11:40:56.583Z,47.60
2023-04-28T11:43:00.118Z,47.60
2023-04-28T11:45:04.368Z,47.60
2023-04-28T11:47:07.224Z,47.60
2023-04-28T11:49:09.221Z,47.70
2023-04-28T11:51:11.573Z,47.90
2023-04-28T11:53:13.134Z,47.70
2023-04-28T11:55:16.596Z,47.60
2023-04-28T11:57:18.962Z,47.80
2023-04-28T11:59:27.685Z,47.80
2023-04-28T12:01:29.425Z,47.80
2023-04-28T12:03:31.201Z,47.60
2023-04-28T12:05:35.007Z,47.80
2023-04-28T12:07:44.216Z,47.70
2023-04-28T12:09:47.460Z,47.00
2023-04-28T12:11:52.739Z,47.50
2023-04-28T12:14:04.111Z,47.60
2023-04-28T12:16:06.290Z,47.60
2023-04-28T12:18:11.954Z,47.50
2023-04-28T12:20:34.701Z,47.40
2023-04-28T12:22:47.430Z,47.40
2023-04-28T12:25:11.447Z,47.40
2023-04-28T12:27:24.799Z,47.40
2023-04-28T12:29:37.055Z,47.40
2023-04-28T12:31:52.826Z,47.50
2023-04-28T12:33:54.668Z,47.40
2023-04-28T12:35:57.018Z,47.40
2023-04-28T12:37:59.365Z,47.40
2023-04-28T12:40:02.441Z,47.40
2023-04-28T12:42:04.101Z,47.40
2023-04-28T12:44:05.681Z,47.50
2023-04-28T12:46:08.713Z,47.70
2023-04-28T12:48:10.959Z,47.70
2023-04-28T12:50:12.693Z,48.50
2023-04-28T12:52:14.321Z,48.00
2023-04-28T12:54:16.079Z,48.20
2023-04-28T12:56:17.592Z,48.40
2023-04-28T12:58:19.171Z,48.30
2023-04-28T13:00:23.328Z,48.30
2023-04-28T13:02:25.177Z,48.40
2023-04-28T13:04:27.432Z,48.40
2023-04-28T13:06:29.392Z,49.30
2023-04-28T13:08:34.022Z,50.20
2023-04-28T13:10:35.609Z,49.80
2023-04-28T13:12:37.186Z,49.10
2023-04-28T13:14:38.937Z,49.10
2023-04-28T13:16:40.601Z,49.00
2023-04-28T13:18:42.294Z,48.90
2023-04-28T13:20:43.972Z,48.90
2023-04-28T13:22:45.636Z,48.90
2023-04-28T13:24:47.908Z,48.80
2023-04-28T13:26:49.784Z,48.90
2023-04-28T13:28:52.058Z,49.50
2023-04-28T13:30:53.628Z,50.00
2023-04-28T13:32:57.401Z,49.70
2023-04-28T13:34:59.153Z,49.80
2023-04-28T13:37:00.927Z,49.90
2023-04-28T13:39:02.799Z,49.60
2023-04-28T13:41:04.580Z,49.50
2023-04-28T13:43:06.454Z,49.60
2023-04-28T13:45:08.124Z,49.60
2023-04-28T13:47:10.773Z,49.80
2023-04-28T13:49:12.549Z,49.50
2023-04-28T13:51:14.359Z,49.30
2023-04-28T13:53:16.273Z,49.50
2023-04-28T13:55:17.844Z,50.90
2023-04-28T13:57:19.452Z,50.10
2023-04-28T13:59:21.065Z,50.40
2023-04-28T14:01:22.681Z,50.40
2023-04-28T14:03:24.676Z,50.10
2023-04-28T14:05:26.828Z,50.70
2023-04-28T14:07:28.385Z,50.60
2023-04-28T14:09:29.961Z,50.60
2023-04-28T14:11:31.534Z,50.50
2023-04-28T14:13:33.405Z,50.90
2023-04-28T14:15:35.936Z,50.70
2023-04-28T14:17:38.642Z,50.80
2023-04-28T14:19:40.509Z,50.50
2023-04-28T14:21:42.538Z,51.40
2023-04-28T14:23:44.097Z,51.00
2023-04-28T14:25:45.690Z,51.30
2023-04-28T14:27:48.781Z,51.40
2023-04-28T14:29:50.663Z,51.40
2023-04-28T14:31:52.443Z,51.40
2023-04-28T14:33:54.044Z,51.30
2023-04-28T14:35:55.615Z,51.90
2023-04-28T14:37:57.378Z,52.50
2023-04-28T14:39:59.571Z,51.80
2023-04-28T14:42:01.776Z,51.60
2023-04-28T14:44:03.408Z,52.60
2023-04-28T14:46:05.761Z,51.40
2023-04-28T14:48:07.972Z,52.10
2023-04-28T14:50:10.674Z,53.20
2023-04-28T14:52:13.514Z,53.30
2023-04-28T14:54:15.125Z,53.20
2023-04-28T14:56:19.297Z,53.50
2023-04-28T14:58:21.416Z,53.70
2023-04-28T15:00:23.722Z,53.80
2023-04-28T15:02:29.003Z,53.60
2023-04-28T15:04:31.105Z,53.90
2023-04-28T15:06:33.853Z,54.00
2023-04-28T15:08:35.558Z,54.20
2023-04-28T15:10:40.282Z,54.20
2023-04-28T15:12:42.582Z,54.20
2023-04-28T15:14:44.198Z,54.20
2023-04-28T15:16:47.190Z,54.60
2023-04-28T15:18:49.052Z,54.70
2023-04-28T15:20:51.440Z,54.60
2023-04-28T15:22:53.078Z,54.80
2023-04-28T15:24:55.775Z,54.90
2023-04-28T15:26:58.574Z,54.60
2023-04-28T15:29:00.766Z,54.40
2023-04-28T15:31:02.653Z,54.60
2023-04-28T15:33:04.373Z,54.60
2023-04-28T15:35:06.594Z,54.20
2023-04-28T15:37:34.144Z,54.50
2023-04-28T15:39:36.294Z,54.00
2023-04-28T15:41:37.792Z,52.80
2023-04-28T15:43:39.620Z,51.90
2023-04-28T15:45:41.252Z,50.00
2023-04-28T15:47:43.407Z,52.10
2023-04-28T15:49:45.001Z,53.50
2023-04-28T15:51:46.786Z,53.30
2023-04-28T15:53:50.609Z,53.60
2023-04-28T15:55:52.218Z,53.30
2023-04-28T15:57:53.879Z,53.30
2023-04-28T15:59:55.432Z,53.40
2023-04-28T16:01:57.171Z,53.60
2023-04-28T16:03:58.965Z,53.70
2023-04-28T16:06:01.079Z,53.30
2023-04-28T16:08:02.685Z,53.90
2023-04-28T16:10:11.866Z,54.10
2023-04-28T16:12:13.548Z,53.50
2023-04-28T16:14:15.559Z,53.70
2023-04-28T16:16:17.137Z,53.70
2023-04-28T16:18:18.742Z,52.70
2023-04-28T16:20:20.875Z,52.30
2023-04-28T16:22:22.550Z,52.00
2023-04-28T16:24:24.732Z,51.90
2023-04-28T16:26:26.677Z,51.90
2023-04-28T16:28:28.294Z,51.80
2023-04-28T16:30:29.953Z,51.60
2023-04-28T16:32:33.451Z,51.40
2023-04-28T16:34:35.202Z,51.80
2023-04-28T16:36:36.734Z,52.30
2023-04-28T16:38:38.671Z,51.90
2023-04-28T16:40:40.857Z,52.50
2023-04-28T16:42:44.897Z,53.00
2023-04-28T16:44:46.438Z,53.30
2023-04-28T16:46:48.723Z,53.00
2023-04-28T16:48:50.364Z,52.20
2023-04-28T16:50:51.956Z,53.50
2023-04-28T16:52:53.535Z,53.30
2023-04-28T16:54:55.361Z,53.20
2023-04-28T16:56:57.582Z,53.50
2023-04-28T16:58:59.330Z,53.10
2023-04-28T17:01:01.081Z,53.90
2023-04-28T17:03:02.977Z,54.10
2023-04-28T17:05:04.803Z,54.10
2023-04-28T17:07:06.409Z,54.30
2023-04-28T17:09:09.417Z,54.50
2023-04-28T17:11:15.743Z,54.60
2023-04-28T17:13:17.473Z,54.60
2023-04-28T17:15:19.141Z,54.80
2023-04-28T17:17:20.701Z,54.70
2023-04-28T17:19:22.368Z,54.70
2023-04-28T17:21:24.784Z,54.50
2023-04-28T17:23:27.650Z,54.60
2023-04-28T17:25:29.345Z,54.60
2023-04-28T17:27:30.930Z,54.60
2023-04-28T17:29:32.524Z,54.50
2023-04-28T17:31:34.921Z,54.60
2023-04-28T17:33:37.919Z,54.40
2023-04-28T17:35:39.578Z,54.60
2023-04-28T17:37:41.865Z,54.40
2023-04-28T17:39:43.442Z,54.60
2023-04-28T17:41:46.675Z,54.40
2023-04-28T17:43:48.358Z,54.70
2023-04-28T17:45:50.689Z,54.50
2023-04-28T17:47:52.892Z,54.90
2023-04-28T17:49:54.766Z,54.60
2023-04-28T17:51:56.396Z,54.70
2023-04-28T17:53:58.090Z,54.60
2023-04-28T17:56:02.618Z,54.40
2023-04-28T17:58:04.192Z,54.60
2023-04-28T18:00:06.255Z,54.50
2023-04-28T18:02:09.005Z,54.50
2023-04-28T18:04:11.198Z,54.20
2023-04-28T18:06:13.770Z,54.50
2023-04-28T18:08:16.124Z,54.30
2023-04-28T18:10:17.827Z,54.60
2023-04-28T18:12:19.407Z,54.50
2023-04-28T18:14:20.994Z,54.70
2023-04-28T18:16:22.650Z,54.80
2023-04-28T18:18:24.290Z,54.90
2023-04-28T18:20:25.975Z,55.00
2023-04-28T18:22:27.945Z,55.10
2023-04-28T18:24:29.718Z,55.00
2023-04-28T18:26:31.545Z,54.90
2023-04-28T18:28:33.874Z,55.00
2023-04-28T18:30:38.299Z,55.00
2023-04-28T18:32:39.981Z,55.20
2023-04-28T18:34:41.958Z,55.10
2023-04-28T18:36:43.592Z,55.30
2023-04-28T18:38:45.325Z,55.80
2023-04-28T18:40:46.839Z,55.20
2023-04-28T18:42:48.887Z,54.90
2023-04-28T18:44:57.835Z,55.00
2023-04-28T18:46:59.950Z,54.90
2023-04-28T18:49:02.901Z,54.80
2023-04-28T18:51:05.451Z,55.10
2023-04-28T18:53:08.728Z,55.70
2023-04-28T18:55:10.427Z,54.90
2023-04-28T18:57:12.645Z,55.00
2023-04-28T18:59:14.297Z,55.10
2023-04-28T19:01:16.605Z,55.00
2023-04-28T19:03:18.612Z,54.90
2023-04-28T19:05:20.286Z,55.10
2023-04-28T19:07:21.949Z,55.10
2023-04-28T19:09:23.497Z,55.30
2023-04-28T19:11:25.104Z,55.20
2023-04-28T19:13:26.704Z,55.30
2023-04-28T19:15:28.324Z,55.20
2023-04-28T19:17:30.308Z,54.90
2023-04-28T19:19:32.197Z,54.70
2023-04-28T19:21:34.791Z,54.60
2023-04-28T19:23:36.360Z,54.10
2023-04-28T19:25:38.094Z,54.50
2023-04-28T19:27:40.793Z,54.30
2023-04-28T19:29:42.377Z,55.10
2023-04-28T19:31:44.461Z,55.40
2023-04-28T19:33:46.048Z,55.20
2023-04-28T19:35:47.586Z,54.60
2023-04-28T19:37:49.836Z,54.60
2023-04-28T19:39:51.684Z,54.30
2023-04-28T19:41:54.513Z,54.20
2023-04-28T19:43:56.019Z,54.20
2023-04-28T19:45:58.119Z,54.40
2023-04-28T19:47:59.747Z,54.10
2023-04-28T19:50:01.466Z,54.30
2023-04-28T19:52:03.135Z,54.10
2023-04-28T19:54:04.706Z,54.10
2023-04-28T19:56:07.460Z,54.20
2023-04-28T19:58:10.202Z,54.20
2023-04-28T20:00:12.137Z,54.10
2023-04-28T20:02:14.140Z,54.10
2023-04-28T20:04:16.018Z,54.10
2023-04-28T20:06:17.835Z,54.00
2023-04-28T20:08:20.475Z,54.10
2023-04-28T20:10:22.651Z,54.00
2023-04-28T20:12:24.317Z,54.20
2023-04-28T20:14:25.880Z,54.20
2023-04-28T20:16:27.413Z,54.30
2023-04-28T20:18:29.032Z,54.30
2023-04-28T20:20:30.563Z,54.20
2023-04-28T20:22:32.170Z,54.10
2023-04-28T20:24:37.321Z,54.10
2023-04-28T20:26:38.877Z,54.10
2023-04-28T20:28:40.661Z,54.10
2023-04-28T20:30:42.283Z,54.00
2023-04-28T20:32:44.419Z,54.00
2023-04-28T20:34:46.062Z,53.90
2023-04-28T20:36:47.650Z,53.90
2023-04-28T20:38:49.195Z,54.00
2023-04-28T20:40:50.788Z,54.10
2023-04-28T20:42:52.323Z,54.10
2023-04-28T20:44:53.857Z,54.00
2023-04-28T20:46:55.578Z,54.10
2023-04-28T20:48:57.179Z,54.40
2023-04-28T20:50:58.812Z,54.40
2023-04-28T20:53:00.363Z,54.60
2023-04-28T20:55:02.087Z,54.90
2023-04-28T20:57:04.381Z,55.00
2023-04-28T20:59:06.020Z,54.90
2023-04-28T21:01:08.231Z,55.20
2023-04-28T21:03:15.501Z,55.10
2023-04-28T21:05:17.612Z,55.20
2023-04-28T21:07:19.188Z,55.10
2023-04-28T21:09:20.895Z,54.80
2023-04-28T21:11:22.433Z,54.60
2023-04-28T21:13:23.974Z,54.50
2023-04-28T21:15:26.204Z,54.70
2023-04-28T21:17:27.969Z,55.00
2023-04-28T21:19:30.197Z,55.00
2023-04-28T21:21:33.724Z,54.90
2023-04-28T21:23:36.651Z,54.70
2023-04-28T21:25:38.223Z,54.70
2023-04-28T21:27:39.782Z,54.60
2023-04-28T21:29:41.373Z,54.70
2023-04-28T21:31:43.146Z,54.80
2023-04-28T21:33:44.773Z,54.70
2023-04-28T21:35:46.333Z,54.70
2023-04-28T21:37:47.990Z,54.60
2023-04-28T21:39:49.775Z,55.30
2023-04-28T21:41:51.407Z,54.80
2023-04-28T21:43:53.146Z,54.80
2023-04-28T21:45:54.782Z,54.80
2023-04-28T21:47:58.184Z,55.00
2023-04-28T21:49:59.891Z,54.90
2023-04-28T21:52:01.480Z,55.00
2023-04-28T21:54:03.273Z,54.90
2023-04-28T21:56:05.582Z,54.90
2023-04-28T21:58:07.165Z,54.90
2023-04-28T22:00:10.630Z,54.90
2023-04-28T22:02:12.795Z,54.80
2023-04-28T22:04:15.044Z,54.90
2023-04-28T22:06:16.835Z,54.90
2023-04-28T22:08:18.626Z,54.80
2023-04-28T22:10:20.385Z,55.00
2023-04-28T22:12:21.955Z,55.00
2023-04-28T22:14:39.670Z,55.60
2023-04-28T22:16:42.784Z,54.80
2023-04-28T22:18:44.300Z,55.10
2023-04-28T22:20:45.967Z,54.80
2023-04-28T22:22:47.529Z,54.90
2023-04-28T22:24:50.010Z,55.00
2023-04-28T22:26:51.560Z,55.10
2023-04-28T22:28:53.159Z,55.10
2023-04-28T22:30:54.860Z,54.90
2023-04-28T22:32:56.554Z,54.80
2023-04-28T22:34:58.157Z,54.90
2023-04-28T22:36:59.782Z,55.00
2023-04-28T22:39:01.497Z,54.90
2023-04-28T22:41:03.083Z,54.90
2023-04-28T22:43:04.730Z,55.00
2023-04-28T22:45:06.816Z,55.00
2023-04-28T22:47:08.521Z,55.00
2023-04-28T22:49:10.076Z,54.90
2023-04-28T22:51:11.704Z,55.00
2023-04-28T22:53:13.368Z,54.90
2023-04-28T22:55:15.110Z,55.00
2023-04-28T22:57:16.698Z,54.90
2023-04-28T22:59:18.363Z,54.90
2023-04-28T23:01:19.973Z,54.90
2023-04-28T23:03:21.788Z,55.10
2023-04-28T23:05:23.433Z,55.00
2023-04-28T23:07:25.495Z,55.00
2023-04-28T23:09:27.072Z,55.10
2023-04-28T23:11:28.660Z,55.00
2023-04-28T23:13:30.366Z,55.00
2023-04-28T23:15:31.883Z,54.90
2023-04-28T23:17:33.498Z,55.00
2023-04-28T23:19:39.253Z,55.00
2023-04-28T23:21:41.135Z,55.00
2023-04-28T23:23:42.648Z,55.00
2023-04-28T23:25:44.269Z,54.80
2023-04-28T23:27:46.025Z,54.90
2023-04-28T23:29:47.606Z,54.90
2023-04-28T23:31:54.264Z,55.00
2023-04-28T23:33:55.903Z,54.90
2023-04-28T23:35:57.463Z,55.00
2023-04-28T23:37:59.091Z,54.90
2023-04-28T23:40:01.027Z,54.90
2023-04-28T23:42:02.709Z,54.90
2023-04-28T23:44:04.323Z,55.00
2023-04-28T23:46:06.770Z,54.90
2023-04-28T23:48:08.376Z,54.90
2023-04-28T23:50:10.023Z,55.00
2023-04-28T23:52:11.568Z,55.00
2023-04-28T23:54:13.200Z,55.10
2023-04-28T23:56:14.751Z,55.00
2023-04-28T23:58:16.341Z,54.90
